createdAt,value
2022-10-18T00:01:22.393Z,3.50
2022-10-18T00:03:51.771Z,3.30
2022-10-18T00:06:19.855Z,3.00
2022-10-18T00:08:51.051Z,3.33
2022-10-18T00:11:19.316Z,3.47
2022-10-18T00:13:47.358Z,3.07
2022-10-18T00:16:25.115Z,3.70
2022-10-18T00:19:02.757Z,2.87
2022-10-18T00:21:31.145Z,3.83
2022-10-18T00:23:59.565Z,3.30
2022-10-18T00:26:30.515Z,3.50
2022-10-18T00:29:01.439Z,2.90
2022-10-18T00:31:32.674Z,3.33
2022-10-18T00:34:11.635Z,2.97
2022-10-18T00:36:40.697Z,2.97
2022-10-18T00:39:10.318Z,3.20
2022-10-18T00:41:38.894Z,2.90
2022-10-18T00:44:09.166Z,4.07
2022-10-18T00:46:38.902Z,3.37
2022-10-18T00:49:13.246Z,3.47
2022-10-18T00:51:52.867Z,3.20
2022-10-18T00:54:25.043Z,2.60
2022-10-18T00:56:53.305Z,2.90
2022-10-18T00:59:23.133Z,3.07
2022-10-18T01:01:51.330Z,2.97
2022-10-18T01:04:24.142Z,3.67
2022-10-18T01:07:05.150Z,3.23
2022-10-18T01:09:38.958Z,3.47
2022-10-18T01:12:20.211Z,3.50
2022-10-18T01:14:57.783Z,3.53
2022-10-18T01:17:36.730Z,3.43
2022-10-18T01:20:44.942Z,2.40
2022-10-18T01:23:19.787Z,2.20
2022-10-18T01:25:55.825Z,3.00
2022-10-18T01:28:43.877Z,2.80
2022-10-18T01:31:16.741Z,3.00
2022-10-18T01:33:50.964Z,2.93
2022-10-18T01:36:23.743Z,2.53
2022-10-18T01:38:59.081Z,2.57
2022-10-18T01:41:31.574Z,3.73
2022-10-18T01:44:03.281Z,2.27
2022-10-18T01:46:34.254Z,2.93
2022-10-18T01:49:05.430Z,2.30
2022-10-18T01:51:36.515Z,2.30
2022-10-18T01:54:05.901Z,2.57
2022-10-18T01:56:44.143Z,2.50
2022-10-18T01:59:50.996Z,2.70
2022-10-18T02:02:32.195Z,2.47
2022-10-18T02:05:08.432Z,2.47
2022-10-18T02:08:12.047Z,2.80
2022-10-18T02:10:48.231Z,2.43
2022-10-18T02:13:20.115Z,2.13
2022-10-18T02:15:51.966Z,2.60
2022-10-18T02:18:26.592Z,2.50
2022-10-18T02:20:56.226Z,2.57
2022-10-18T02:23:27.209Z,2.23
2022-10-18T02:25:56.195Z,2.47
2022-10-18T02:31:14.571Z,2.80
2022-10-18T02:33:55.782Z,2.40
2022-10-18T02:36:29.542Z,2.40
2022-10-18T02:39:04.386Z,2.13
2022-10-18T02:41:33.258Z,2.67
2022-10-18T02:44:01.708Z,3.27
2022-10-18T02:46:30.429Z,2.37
2022-10-18T02:49:02.269Z,2.57
2022-10-18T02:51:38.177Z,2.43
2022-10-18T02:54:08.368Z,2.00
2022-10-18T02:56:37.761Z,1.90
2022-10-18T02:59:07.318Z,2.43
2022-10-18T03:01:37.235Z,2.33
2022-10-18T03:04:08.279Z,2.10
2022-10-18T03:06:44.581Z,2.23
2022-10-18T03:09:15.676Z,2.23
2022-10-18T03:11:46.053Z,2.40
2022-10-18T03:14:20.422Z,2.77
2022-10-18T03:16:48.831Z,2.00
2022-10-18T03:19:20.903Z,2.43
2022-10-18T03:21:52.387Z,2.60
2022-10-18T03:24:23.178Z,2.40
2022-10-18T03:26:51.972Z,2.73
2022-10-18T03:29:20.333Z,2.93
2022-10-18T03:31:50.839Z,3.37
2022-10-18T03:34:21.108Z,2.80
2022-10-18T03:36:51.126Z,2.90
2022-10-18T03:39:20.095Z,2.50
2022-10-18T03:41:50.819Z,2.73
2022-10-18T03:44:18.897Z,2.70
2022-10-18T03:46:49.186Z,2.70
2022-10-18T03:49:17.950Z,2.63
2022-10-18T03:54:30.390Z,4.40
2022-10-18T03:56:58.659Z,4.10
2022-10-18T03:59:27.139Z,3.03
2022-10-18T04:01:56.247Z,3.93
2022-10-18T04:04:24.290Z,3.90
2022-10-18T04:06:54.011Z,3.43
2022-10-18T04:09:22.838Z,4.27
2022-10-18T04:11:51.594Z,4.20
2022-10-18T04:14:21.239Z,5.37
2022-10-18T04:16:50.105Z,5.30
2022-10-18T04:19:18.560Z,5.43
2022-10-18T04:21:49.498Z,5.50
2022-10-18T04:24:19.658Z,4.93
2022-10-18T04:26:50.098Z,5.13
2022-10-18T04:29:18.394Z,5.07
2022-10-18T04:31:53.887Z,4.90
2022-10-18T04:34:22.311Z,6.63
2022-10-18T04:36:53.545Z,6.00
2022-10-18T04:39:23.510Z,5.90
2022-10-18T04:41:51.580Z,5.77
2022-10-18T04:44:19.585Z,5.83
2022-10-18T04:46:48.619Z,5.17
2022-10-18T04:49:19.591Z,5.93
2022-10-18T04:51:48.386Z,5.90
2022-10-18T04:54:19.271Z,5.50
2022-10-18T04:56:49.218Z,5.63
2022-10-18T04:59:17.267Z,6.57
2022-10-18T05:01:47.860Z,5.63
2022-10-18T05:04:16.311Z,5.40
2022-10-18T05:06:46.726Z,5.53
2022-10-18T05:09:22.463Z,6.90
2022-10-18T05:11:54.562Z,6.50
2022-10-18T05:14:25.700Z,7.53
2022-10-18T05:16:54.518Z,6.63
2022-10-18T05:19:29.902Z,6.50
2022-10-18T05:21:58.350Z,6.87
2022-10-18T05:24:27.775Z,6.37
2022-10-18T05:26:58.654Z,6.70
2022-10-18T05:32:01.296Z,8.13
2022-10-18T05:34:31.913Z,7.63
2022-10-18T05:37:09.099Z,8.43
2022-10-18T05:39:38.926Z,7.90
2022-10-18T05:42:08.919Z,9.80
2022-10-18T05:44:37.409Z,9.03
2022-10-18T05:47:05.728Z,9.33
2022-10-18T05:49:33.812Z,9.73
2022-10-18T05:52:02.016Z,9.73
2022-10-18T05:54:30.251Z,11.10
2022-10-18T05:56:58.252Z,10.70
2022-10-18T05:59:31.937Z,10.73
2022-10-18T06:02:00.988Z,9.50
2022-10-18T06:04:28.972Z,10.20
2022-10-18T06:06:57.274Z,11.00
2022-10-18T06:09:26.067Z,9.97
2022-10-18T06:11:56.348Z,12.13
2022-10-18T06:14:25.706Z,9.97
2022-10-18T06:16:58.581Z,10.70
2022-10-18T06:19:29.322Z,10.93
2022-10-18T06:21:58.295Z,11.00
2022-10-18T06:24:26.673Z,10.97
2022-10-18T06:26:55.103Z,10.10
2022-10-18T06:29:23.122Z,11.07
2022-10-18T06:31:51.509Z,12.57
2022-10-18T06:34:21.446Z,13.80
2022-10-18T06:36:56.524Z,12.47
2022-10-18T06:39:26.581Z,12.70
2022-10-18T06:44:40.735Z,13.87
2022-10-18T06:47:09.651Z,12.93
2022-10-18T06:49:38.960Z,13.60
2022-10-18T06:52:07.541Z,11.27
2022-10-18T06:54:35.995Z,12.80
2022-10-18T06:57:04.100Z,12.30
2022-10-18T06:59:32.111Z,12.37
2022-10-18T07:02:00.445Z,13.57
2022-10-18T07:04:30.328Z,12.63
2022-10-18T07:06:59.705Z,13.53
2022-10-18T07:09:30.752Z,13.13
2022-10-18T07:12:01.532Z,13.60
2022-10-18T07:14:30.672Z,12.20
2022-10-18T07:17:00.378Z,12.63
2022-10-18T07:19:28.473Z,13.43
2022-10-18T07:21:58.518Z,14.00
2022-10-18T07:24:28.682Z,13.50
2022-10-18T07:26:56.901Z,14.33
2022-10-18T07:29:26.303Z,14.17
2022-10-18T07:31:55.119Z,12.77
2022-10-18T07:34:23.744Z,15.00
2022-10-18T07:36:51.938Z,13.50
2022-10-18T07:39:19.922Z,15.53
2022-10-18T07:41:53.264Z,14.60
2022-10-18T07:44:21.312Z,16.23
2022-10-18T07:46:49.255Z,15.50
2022-10-18T07:49:30.237Z,15.80
2022-10-18T07:52:05.550Z,15.90
2022-10-18T07:54:34.393Z,16.13
2022-10-18T07:57:06.703Z,15.47
2022-10-18T07:59:34.734Z,15.33
2022-10-18T08:02:03.085Z,15.60
2022-10-18T08:04:31.093Z,16.87
2022-10-18T08:06:59.073Z,17.23
2022-10-18T08:09:32.422Z,17.70
2022-10-18T08:12:03.578Z,16.83
2022-10-18T08:14:36.050Z,17.30
2022-10-18T08:17:08.866Z,15.50
2022-10-18T08:19:48.311Z,15.87
2022-10-18T08:22:26.975Z,16.83
2022-10-18T08:24:55.897Z,18.40
2022-10-18T08:27:27.164Z,19.30
2022-10-18T08:29:59.657Z,19.40
2022-10-18T08:32:28.828Z,20.30
2022-10-18T08:35:06.863Z,19.23
2022-10-18T08:37:45.982Z,18.30
2022-10-18T08:40:15.345Z,19.67
2022-10-18T08:43:02.990Z,21.50
2022-10-18T08:45:43.516Z,21.70
2022-10-18T08:48:21.684Z,23.17
2022-10-18T08:50:51.690Z,25.30
2022-10-18T08:53:25.777Z,26.13
2022-10-18T08:56:01.908Z,21.40
2022-10-18T08:58:33.290Z,24.97
2022-10-18T09:01:28.727Z,26.00
2022-10-18T09:04:12.350Z,31.23
2022-10-18T09:06:49.936Z,28.30
2022-10-18T09:09:28.503Z,30.20
2022-10-18T09:12:04.355Z,29.33
2022-10-18T09:15:09.546Z,31.37
2022-10-18T09:17:49.385Z,31.03
2022-10-18T09:20:25.668Z,30.77
2022-10-18T09:22:57.186Z,30.70
2022-10-18T09:25:27.873Z,32.10
2022-10-18T09:27:58.235Z,34.03
2022-10-18T09:30:49.568Z,33.13
2022-10-18T09:33:36.805Z,30.90
2022-10-18T09:36:16.218Z,29.63
2022-10-18T09:38:47.464Z,30.30
2022-10-18T09:41:22.137Z,31.60
2022-10-18T09:43:58.092Z,30.50
2022-10-18T09:46:32.708Z,30.87
2022-10-18T09:49:06.432Z,29.70
2022-10-18T09:51:40.123Z,28.40
2022-10-18T09:54:27.843Z,29.20
2022-10-18T09:57:03.795Z,29.90
2022-10-18T09:59:38.248Z,27.87
2022-10-18T10:02:09.298Z,27.90
2022-10-18T10:04:38.719Z,27.17
2022-10-18T10:07:10.008Z,27.00
2022-10-18T10:09:42.501Z,28.30
2022-10-18T10:12:27.064Z,28.37
2022-10-18T10:14:57.438Z,25.70
2022-10-18T10:17:29.751Z,25.37
2022-10-18T10:20:06.982Z,29.33
2022-10-18T10:22:37.695Z,28.93
2022-10-18T10:25:08.580Z,30.13
2022-10-18T10:27:43.757Z,30.10
2022-10-18T10:30:28.206Z,31.57
2022-10-18T10:32:57.966Z,30.30
2022-10-18T10:35:53.616Z,33.27
2022-10-18T10:38:27.265Z,29.63
2022-10-18T10:40:56.090Z,28.97
2022-10-18T10:43:42.572Z,29.50
2022-10-18T10:46:12.877Z,28.87
2022-10-18T10:48:49.743Z,27.60
2022-10-18T10:51:30.056Z,29.07
2022-10-18T10:54:02.488Z,26.20
2022-10-18T10:56:40.136Z,27.30
2022-10-18T10:59:14.702Z,30.63
2022-10-18T11:01:55.028Z,26.50
2022-10-18T11:04:30.993Z,27.83
2022-10-18T11:07:12.873Z,28.37
2022-10-18T11:09:49.572Z,33.40
2022-10-18T11:12:27.354Z,26.80
2022-10-18T11:15:03.497Z,28.70
2022-10-18T11:17:40.940Z,28.63
2022-10-18T11:20:23.924Z,26.93
2022-10-18T11:23:09.462Z,24.53
2022-10-18T11:26:09.426Z,22.90
2022-10-18T11:29:04.241Z,24.47
2022-10-18T11:31:36.940Z,24.33
2022-10-18T11:34:22.951Z,25.50
2022-10-18T11:37:09.752Z,25.20
2022-10-18T11:40:00.447Z,24.13
2022-10-18T11:42:39.681Z,23.33
2022-10-18T11:45:20.764Z,23.40
2022-10-18T11:47:55.870Z,21.77
2022-10-18T11:50:32.239Z,24.13
2022-10-18T11:53:10.256Z,22.80
2022-10-18T11:55:50.218Z,22.10
2022-10-18T11:58:39.537Z,21.53
2022-10-18T12:01:22.327Z,19.80
2022-10-18T12:03:58.099Z,23.27
2022-10-18T12:06:30.810Z,18.87
2022-10-18T12:09:05.401Z,16.90
2022-10-18T12:11:45.426Z,16.90
2022-10-18T12:14:28.575Z,18.20
2022-10-18T12:17:27.891Z,18.10
2022-10-18T12:19:50.924Z,17.10
2022-10-18T12:22:26.456Z,17.97
2022-10-18T12:24:55.805Z,17.10
2022-10-18T12:27:37.135Z,16.67
2022-10-18T12:30:15.077Z,16.63
2022-10-18T12:32:56.517Z,14.10
2022-10-18T12:35:42.180Z,14.70
2022-10-18T12:38:21.176Z,14.20
2022-10-18T12:40:54.896Z,14.27
2022-10-18T12:43:32.403Z,13.67
2022-10-18T12:46:03.083Z,11.23
2022-10-18T12:48:34.743Z,11.23
2022-10-18T12:51:08.147Z,10.73
2022-10-18T12:53:38.731Z,10.33
2022-10-18T12:56:42.196Z,9.57
2022-10-18T12:59:53.689Z,10.13
2022-10-18T13:05:55.656Z,8.23
2022-10-18T13:08:42.064Z,6.70
2022-10-18T13:11:36.239Z,6.40
2022-10-18T13:14:24.934Z,8.13
2022-10-18T13:16:59.078Z,8.30
2022-10-18T13:19:36.066Z,7.07
2022-10-18T13:22:30.434Z,7.23
2022-10-18T13:25:07.434Z,5.40
2022-10-18T13:27:46.781Z,5.57
2022-10-18T13:30:28.369Z,5.00
2022-10-18T13:33:06.520Z,4.60
2022-10-18T13:35:54.284Z,4.17
2022-10-18T13:38:50.724Z,5.83
2022-10-18T13:41:21.414Z,4.70
2022-10-18T13:44:01.213Z,4.80
2022-10-18T13:47:02.954Z,4.57
2022-10-18T13:49:45.516Z,4.30
2022-10-18T13:52:23.258Z,4.30
2022-10-18T13:55:17.141Z,4.83
2022-10-18T13:57:56.023Z,4.90
2022-10-18T14:00:51.391Z,4.80
2022-10-18T14:03:58.244Z,4.87
2022-10-18T14:06:29.852Z,4.97
2022-10-18T14:09:14.153Z,5.13
2022-10-18T14:11:57.622Z,4.90
2022-10-18T14:14:34.275Z,3.70
2022-10-18T14:17:14.192Z,4.90
2022-10-18T14:19:52.826Z,4.27
2022-10-18T14:22:23.944Z,3.53
2022-10-18T14:24:56.445Z,3.50
2022-10-18T14:27:26.331Z,3.00
2022-10-18T14:30:10.446Z,4.10
2022-10-18T14:32:38.540Z,2.87
2022-10-18T14:35:34.073Z,2.97
2022-10-18T14:38:03.439Z,3.57
2022-10-18T14:40:38.197Z,2.60
2022-10-18T14:43:14.074Z,3.23
2022-10-18T14:45:46.935Z,2.93
2022-10-18T14:48:18.727Z,3.17
2022-10-18T14:50:58.994Z,2.80
2022-10-18T14:53:32.495Z,2.70
2022-10-18T14:56:04.025Z,2.50
2022-10-18T14:58:33.568Z,2.47
2022-10-18T15:01:04.240Z,2.90
2022-10-18T15:03:37.072Z,2.83
2022-10-18T15:06:10.970Z,2.70
2022-10-18T15:08:44.665Z,2.30
2022-10-18T15:11:18.151Z,3.00
2022-10-18T15:13:50.965Z,3.30
2022-10-18T15:16:21.006Z,2.73
2022-10-18T15:19:04.846Z,2.40
2022-10-18T15:21:33.691Z,2.50
2022-10-18T15:24:24.090Z,2.00
2022-10-18T15:26:55.733Z,2.77
2022-10-18T15:29:24.807Z,3.10
2022-10-18T15:31:53.711Z,2.90
2022-10-18T15:34:30.062Z,2.23
2022-10-18T15:36:58.344Z,2.90
2022-10-18T15:39:29.718Z,2.17
2022-10-18T15:42:07.288Z,2.20
2022-10-18T15:44:47.981Z,2.10
2022-10-18T15:47:21.267Z,2.20
2022-10-18T15:49:56.387Z,2.53
2022-10-18T15:52:45.148Z,2.10
2022-10-18T15:55:57.591Z,2.20
2022-10-18T15:58:28.798Z,2.03
2022-10-18T16:01:00.086Z,2.50
2022-10-18T16:03:29.286Z,2.87
2022-10-18T16:06:06.086Z,2.13
2022-10-18T16:08:40.571Z,1.90
2022-10-18T16:11:09.636Z,2.13
2022-10-18T16:13:41.444Z,1.90
2022-10-18T16:16:19.802Z,3.47
2022-10-18T16:18:48.118Z,2.20
2022-10-18T16:21:22.400Z,2.63
2022-10-18T16:23:51.741Z,2.80
2022-10-18T16:26:22.420Z,2.60
2022-10-18T16:28:55.372Z,2.40
2022-10-18T16:31:27.940Z,2.70
2022-10-18T16:33:57.341Z,2.77
2022-10-18T16:39:16.801Z,2.67
2022-10-18T16:41:48.733Z,2.83
2022-10-18T16:44:25.620Z,2.37
2022-10-18T16:46:56.251Z,2.30
2022-10-18T16:49:28.586Z,2.70
2022-10-18T16:51:59.816Z,2.67
2022-10-18T16:54:30.464Z,3.60
2022-10-18T16:57:01.386Z,2.37
2022-10-18T16:59:33.425Z,2.60
2022-10-18T17:02:05.863Z,2.60
2022-10-18T17:04:34.191Z,2.47
2022-10-18T17:07:07.807Z,2.67
2022-10-18T17:09:37.348Z,2.40
2022-10-18T17:12:05.951Z,2.70
2022-10-18T17:14:38.244Z,2.40
2022-10-18T17:17:06.280Z,3.00
2022-10-18T17:19:35.985Z,3.10
2022-10-18T17:22:04.394Z,2.77
2022-10-18T17:24:35.678Z,2.73
2022-10-18T17:27:03.906Z,2.47
2022-10-18T17:29:32.925Z,2.80
2022-10-18T17:32:07.050Z,2.47
2022-10-18T17:34:38.975Z,3.03
2022-10-18T17:37:09.016Z,2.80
2022-10-18T17:39:37.064Z,3.00
2022-10-18T17:42:05.156Z,2.43
2022-10-18T17:44:38.335Z,2.90
2022-10-18T17:47:10.519Z,3.53
2022-10-18T17:49:39.422Z,3.07
2022-10-18T17:52:08.099Z,2.57
2022-10-18T17:54:36.678Z,2.50
2022-10-18T17:57:04.703Z,2.50
2022-10-18T17:59:36.135Z,3.37
2022-10-18T18:02:04.546Z,2.80
2022-10-18T18:04:38.645Z,3.00
2022-10-18T18:07:07.615Z,3.30
2022-10-18T18:09:36.019Z,2.73
2022-10-18T18:12:05.155Z,3.10
2022-10-18T18:14:33.982Z,2.83
2022-10-18T18:17:04.765Z,4.30
2022-10-18T18:19:40.083Z,8.03
2022-10-18T18:22:10.966Z,8.20
2022-10-18T18:24:39.851Z,9.57
2022-10-18T18:27:08.208Z,8.60
2022-10-18T18:29:36.573Z,8.37
2022-10-18T18:32:04.932Z,7.77
2022-10-18T18:34:36.849Z,7.60
2022-10-18T18:37:04.939Z,7.03
2022-10-18T18:39:35.997Z,7.60
2022-10-18T18:42:05.010Z,8.00
2022-10-18T18:44:34.263Z,5.20
2022-10-18T18:47:04.268Z,5.60
2022-10-18T18:52:19.049Z,4.43
2022-10-18T18:54:47.687Z,3.03
2022-10-18T18:57:15.807Z,2.33
2022-10-18T18:59:44.253Z,4.53
2022-10-18T19:02:12.903Z,3.20
2022-10-18T19:04:42.483Z,4.03
2022-10-18T19:07:10.585Z,3.33
2022-10-18T19:09:39.832Z,3.53
2022-10-18T19:12:07.885Z,2.80
2022-10-18T19:14:36.322Z,3.03
2022-10-18T19:17:08.274Z,3.87
2022-10-18T19:19:39.682Z,3.30
2022-10-18T19:22:13.723Z,2.70
2022-10-18T19:24:42.294Z,2.70
2022-10-18T19:27:12.811Z,3.37
2022-10-18T19:29:41.891Z,2.80
2022-10-18T19:32:11.990Z,3.20
2022-10-18T19:34:41.486Z,3.47
2022-10-18T19:37:12.301Z,3.40
2022-10-18T19:39:42.992Z,4.27
2022-10-18T19:42:18.600Z,3.13
2022-10-18T19:44:51.946Z,3.60
2022-10-18T19:47:21.350Z,3.73
2022-10-18T19:49:49.473Z,3.13
2022-10-18T19:52:19.239Z,3.40
2022-10-18T19:54:49.792Z,3.50
2022-10-18T19:57:18.287Z,2.73
2022-10-18T19:59:46.390Z,3.37
2022-10-18T20:02:16.243Z,3.20
2022-10-18T20:04:47.183Z,4.13
2022-10-18T20:07:15.934Z,2.97
2022-10-18T20:09:48.187Z,2.80
2022-10-18T20:12:16.943Z,3.00
2022-10-18T20:14:45.013Z,3.07
2022-10-18T20:17:14.362Z,3.00
2022-10-18T20:19:42.812Z,5.80
2022-10-18T20:22:10.835Z,4.80
2022-10-18T20:24:39.712Z,5.90
2022-10-18T20:27:09.236Z,4.17
2022-10-18T20:29:40.084Z,3.90
2022-10-18T20:32:08.721Z,4.00
2022-10-18T20:34:38.952Z,3.50
2022-10-18T20:37:07.853Z,4.40
2022-10-18T20:39:35.919Z,3.50
2022-10-18T20:42:04.435Z,3.97
2022-10-18T20:44:34.008Z,4.90
2022-10-18T20:47:04.350Z,4.03
2022-10-18T20:49:32.753Z,4.20
2022-10-18T20:52:01.366Z,4.80
2022-10-18T20:54:29.574Z,4.53
2022-10-18T20:57:00.906Z,4.53
2022-10-18T20:59:31.043Z,4.40
2022-10-18T21:02:03.594Z,4.30
2022-10-18T21:04:31.794Z,4.77
2022-10-18T21:07:00.983Z,4.40
2022-10-18T21:09:29.136Z,4.30
2022-10-18T21:11:58.122Z,5.13
2022-10-18T21:14:26.961Z,4.20
2022-10-18T21:16:55.600Z,3.70
2022-10-18T21:19:26.837Z,4.63
2022-10-18T21:21:57.825Z,4.40
2022-10-18T21:24:30.152Z,4.47
2022-10-18T21:27:00.342Z,5.10
2022-10-18T21:29:32.715Z,5.83
2022-10-18T21:32:03.112Z,5.37
2022-10-18T21:34:41.007Z,4.17
2022-10-18T21:37:09.525Z,6.00
2022-10-18T21:39:38.014Z,5.87
2022-10-18T21:42:06.140Z,5.40
2022-10-18T21:44:35.249Z,4.20
2022-10-18T21:47:03.826Z,4.50
2022-10-18T21:49:36.263Z,3.93
2022-10-18T21:52:05.887Z,3.80
2022-10-18T21:54:36.731Z,4.37
2022-10-18T21:57:05.584Z,3.47
2022-10-18T21:59:33.725Z,5.00
2022-10-18T22:02:03.139Z,4.13
2022-10-18T22:04:36.227Z,3.33
2022-10-18T22:07:07.860Z,3.47
2022-10-18T22:09:36.816Z,3.40
2022-10-18T22:12:05.074Z,5.07
2022-10-18T22:14:33.409Z,4.43
2022-10-18T22:17:02.296Z,4.60
2022-10-18T22:19:30.615Z,4.03
2022-10-18T22:22:00.547Z,5.30
2022-10-18T22:24:29.085Z,4.60
2022-10-18T22:26:59.968Z,4.27
2022-10-18T22:29:28.837Z,3.40
2022-10-18T22:31:56.809Z,4.00
2022-10-18T22:34:27.665Z,4.00
2022-10-18T22:36:57.397Z,3.97
2022-10-18T22:39:26.785Z,3.70
2022-10-18T22:41:58.096Z,4.43
2022-10-18T22:44:26.527Z,4.97
2022-10-18T22:46:57.200Z,3.73
2022-10-18T22:49:27.995Z,3.30
2022-10-18T22:51:56.451Z,4.00
2022-10-18T22:54:25.771Z,4.10
2022-10-18T22:56:55.112Z,3.70
2022-10-18T22:59:23.108Z,4.00
2022-10-18T23:01:51.465Z,4.27
2022-10-18T23:04:20.243Z,3.30
2022-10-18T23:06:48.330Z,3.27
2022-10-18T23:09:23.704Z,3.90
2022-10-18T23:11:55.934Z,3.40
2022-10-18T23:14:24.016Z,4.47
2022-10-18T23:16:52.024Z,4.57
2022-10-18T23:19:23.270Z,3.60
2022-10-18T23:21:53.506Z,3.00
2022-10-18T23:24:22.848Z,3.30
2022-10-18T23:26:58.212Z,2.70
2022-10-18T23:29:31.098Z,4.10
2022-10-18T23:31:59.236Z,4.40
2022-10-18T23:34:27.336Z,4.10
2022-10-18T23:36:59.466Z,3.17
2022-10-18T23:39:27.537Z,3.43
2022-10-18T23:42:02.994Z,3.10
2022-10-18T23:44:35.382Z,3.07
2022-10-18T23:47:03.347Z,3.00
2022-10-18T23:49:32.402Z,3.03
2022-10-18T23:52:06.950Z,2.87
2022-10-18T23:54:38.794Z,3.10
2022-10-18T23:57:06.882Z,3.47
2022-10-18T23:59:38.755Z,3.17
